West Rushville, Ohio
Current Conditions -  °F | °C
As of 4:53 PM on Saturday 25 Oct 2014 (Local Time) from KLHQ Reporting Station
Clear Clear  
Wind Chill: 70°   Ceiling: Unl
Heat Index: 70°   Visibility: 10mi
Dew Point: 54°   Wind: 9mph
Humidity: 57%   Direction: 260°W
Pressure: 29.86"   Gusts: NA
Location:  39.76°N, 82.45°W
Report Text: KLHQ 252053Z AUTO 26008KT 10SM CLR 21/12 A2986 RMK AO2 SLP110 T02110122 55010
Loading
Personal Weather Stations






























Interactive Weather Map New forecast layout! Learn more

10-Day Weather Forecast

Advertisements
Track Severe Weather on mobile